Time;durP1;ratioP1;P1;durP2;ratioP2;P2;SDS_P1;SDS_P2;PMS_P1;PMS_P2;Temp;Humidity;BMP_temperature;BMP_pressure;BME280_temperature;BME280_humidity;BME280_pressure;Samples;Min_cycle;Max_cycle;Signal;HPM_P1;HPM_P2
2021/06/29 03:00:10;;;;;;;5.50;3.65;;;25.20;68.40;;;;;;6135528;23;20024;31
2021/06/29 03:02:36;;;;;;;5.43;4.03;;;25.20;68.50;;;;;;4982112;28;20233;-52
2021/06/29 03:05:03;;;;;;;5.45;3.67;;;25.20;68.50;;;;;;4983829;28;20560;-51
2021/06/29 03:07:28;;;;;;;5.55;3.75;;;25.20;68.50;;;;;;4983535;28;20050;-51
2021/06/29 03:09:54;;;;;;;6.95;3.85;;;25.20;68.50;;;;;;4983659;28;20496;-51
2021/06/29 03:12:20;;;;;;;5.30;3.97;;;25.20;68.50;;;;;;4983587;28;20019;-51
2021/06/29 03:14:50;;;;;;;5.10;3.90;;;25.20;68.40;;;;;;4981109;28;20413;-50
2021/06/29 03:17:17;;;;;;;6.90;3.95;;;25.20;68.40;;;;;;4981117;28;20026;-52
2021/06/29 03:19:43;;;;;;;7.10;4.25;;;25.20;68.40;;;;;;4980700;28;20050;-52
2021/06/29 03:22:09;;;;;;;5.45;3.95;;;25.20;68.40;;;;;;4982875;28;20433;-52
2021/06/29 03:24:34;;;;;;;6.00;4.03;;;25.20;68.40;;;;;;4982539;28;20040;-53
2021/06/29 03:27:00;;;;;;;5.75;3.60;;;25.20;68.40;;;;;;4982523;28;20089;-51
2021/06/29 03:29:26;;;;;;;6.60;4.07;;;25.20;68.50;;;;;;4982568;28;20068;-51
2021/06/29 03:31:51;;;;;;;8.85;3.67;;;25.20;68.40;;;;;;4982245;28;20340;-52
2021/06/29 03:34:17;;;;;;;8.95;4.15;;;25.20;68.50;;;;;;4982592;28;20022;-52
2021/06/29 03:36:43;;;;;;;5.68;3.97;;;25.20;68.40;;;;;;4982363;28;20030;-51
2021/06/29 03:39:10;;;;;;;4.90;3.90;;;25.20;68.40;;;;;;4981546;28;20474;-50
2021/06/29 03:41:36;;;;;;;4.90;3.55;;;25.20;68.40;;;;;;4982199;28;20319;-51
2021/06/29 03:44:02;;;;;;;9.02;3.83;;;25.20;68.40;;;;;;4982467;28;20513;-51
2021/06/29 03:46:28;;;;;;;4.68;3.75;;;25.20;68.40;;;;;;4983161;28;20685;-51
2021/06/29 03:48:54;;;;;;;6.38;3.90;;;25.20;68.30;;;;;;4983002;28;20042;-51
2021/06/29 03:51:19;;;;;;;7.55;3.97;;;25.20;68.40;;;;;;4983957;28;20027;-51
2021/06/29 03:53:45;;;;;;;10.02;4.05;;;25.20;68.40;;;;;;4984306;28;20038;-51
2021/06/29 03:56:24;;;;;;;6.63;3.85;;;25.20;68.30;;;;;;4983719;28;20026;-50
2021/06/29 03:58:58;;;;;;;5.47;3.70;;;25.20;68.40;;;;;;4970572;28;20026;-52
2021/06/29 04:01:24;;;;;;;7.97;4.05;;;25.20;68.30;;;;;;4983717;28;20105;-51
2021/06/29 04:03:54;;;;;;;6.78;4.03;;;25.20;68.10;;;;;;4984065;28;20087;-51
2021/06/29 04:06:22;;;;;;;6.97;3.85;;;25.20;68.00;;;;;;4983914;28;20146;-51
2021/06/29 04:08:48;;;;;;;9.70;4.47;;;25.30;68.00;;;;;;4983821;28;20018;-51
2021/06/29 04:11:13;;;;;;;8.32;4.63;;;25.30;68.00;;;;;;4984027;28;20095;-51
2021/06/29 04:13:39;;;;;;;9.77;4.20;;;25.30;68.10;;;;;;4983966;28;20029;-51
2021/06/29 04:16:05;;;;;;;5.93;3.97;;;25.40;68.00;;;;;;4983818;28;20032;-53
2021/06/29 04:18:30;;;;;;;5.70;3.70;;;25.50;67.90;;;;;;4983835;28;20417;-51
2021/06/29 04:20:56;;;;;;;7.53;3.58;;;25.70;67.60;;;;;;4983690;28;20038;-52
2021/06/29 04:23:21;;;;;;;6.20;3.50;;;25.80;67.40;;;;;;4983936;28;20018;-51
2021/06/29 04:25:47;;;;;;;6.45;3.92;;;25.90;67.00;;;;;;4983407;28;20034;-51
2021/06/29 04:28:13;;;;;;;5.13;3.40;;;26.00;66.70;;;;;;4983502;28;20010;-51
2021/06/29 04:30:38;;;;;;;6.22;3.20;;;26.00;66.40;;;;;;4983492;28;20699;-51
2021/06/29 04:33:06;;;;;;;6.18;3.38;;;26.10;66.20;;;;;;4982285;28;20019;-51
2021/06/29 04:35:31;;;;;;;8.60;3.70;;;26.10;66.20;;;;;;4979830;28;20097;-52
2021/06/29 04:37:57;;;;;;;11.23;3.95;;;26.10;66.00;;;;;;4982066;28;20031;-52
2021/06/29 04:40:22;;;;;;;7.32;3.22;;;26.10;65.70;;;;;;4982620;28;20573;-51
2021/06/29 04:42:48;;;;;;;8.45;3.53;;;26.10;65.80;;;;;;4983607;28;20015;-51
2021/06/29 04:47:49;;;;;;;8.80;3.40;;;26.10;65.40;;;;;;5138805;27;20413;-52
2021/06/29 04:50:15;;;;;;;17.67;3.78;;;26.00;65.80;;;;;;5118272;27;20656;-51
2021/06/29 04:52:41;;;;;;;10.55;3.45;;;26.00;65.20;;;;;;5101912;27;20045;-52
2021/06/29 04:55:08;;;;;;;11.70;3.28;;;26.00;65.40;;;;;;5079770;28;20278;-52
2021/06/29 04:57:34;;;;;;;11.60;3.22;;;26.00;66.00;;;;;;5080018;28;20111;-53
2021/06/29 05:00:06;;;;;;;13.13;3.58;;;26.00;66.10;;;;;;5080297;28;20029;-51
2021/06/29 05:02:32;;;;;;;10.52;3.60;;;26.00;66.20;;;;;;5080010;28;20032;-51
2021/06/29 05:04:58;;;;;;;7.93;2.80;;;25.90;66.10;;;;;;5080040;28;20032;-53
2021/06/29 05:07:24;;;;;;;12.48;3.92;;;25.90;66.00;;;;;;5080001;28;20028;-52
2021/06/29 05:09:49;;;;;;;10.55;3.40;;;25.90;66.00;;;;;;5080106;28;20028;-52
2021/06/29 05:14:08;;;;;;;21.48;3.78;;;25.90;65.60;;;;;;5183586;27;20539;-51
2021/06/29 05:16:33;;;;;;;9.70;3.13;;;25.80;65.90;;;;;;5141860;27;20046;-52
2021/06/29 05:18:59;;;;;;;5.13;3.03;;;25.80;65.90;;;;;;5141823;27;20027;-52
2021/06/29 05:21:25;;;;;;;7.10;3.15;;;25.80;66.00;;;;;;5141806;27;20663;-52
2021/06/29 05:23:51;;;;;;;6.00;2.85;;;25.80;66.00;;;;;;5141797;27;20027;-52
2021/06/29 05:26:17;;;;;;;8.48;3.10;;;25.80;66.10;;;;;;5141700;27;20022;-52
2021/06/29 05:28:43;;;;;;;6.30;2.95;;;25.80;66.10;;;;;;5141713;27;20614;-51
2021/06/29 05:31:09;;;;;;;5.50;2.80;;;25.80;66.20;;;;;;5141649;27;20039;-52
2021/06/29 05:33:34;;;;;;;8.45;3.03;;;25.80;66.30;;;;;;5141469;27;20501;-52
2021/06/29 05:36:00;;;;;;;6.15;2.97;;;25.70;66.30;;;;;;5141452;27;20079;-52
2021/06/29 05:38:25;;;;;;;6.82;3.10;;;25.80;66.50;;;;;;5141410;27;20150;-52
2021/06/29 05:40:51;;;;;;;5.40;2.95;;;25.70;66.50;;;;;;5141410;27;20253;-51
2021/06/29 05:43:17;;;;;;;6.30;2.83;;;25.70;66.50;;;;;;5141359;27;20054;-52
2021/06/29 05:45:42;;;;;;;5.28;2.70;;;25.70;66.60;;;;;;5141256;27;20037;-51
2021/06/29 05:48:34;;;;;;;6.20;3.28;;;25.70;66.20;;;;;;5111547;27;20500;-52
2021/06/29 05:51:01;;;;;;;6.60;2.58;;;25.70;66.70;;;;;;5080384;28;20094;-52
2021/06/29 05:53:30;;;;;;;4.53;2.35;;;25.60;66.70;;;;;;5080451;28;20022;-52
2021/06/29 05:58:04;;;;;;;5.95;2.80;;;25.60;66.30;;;;;;5122693;27;20405;-52
2021/06/29 06:00:30;;;;;;;6.57;2.75;;;25.60;66.80;;;;;;5100747;28;20493;-52
2021/06/29 06:02:55;;;;;;;3.97;2.38;;;25.60;66.90;;;;;;5100799;28;20386;-53
2021/06/29 06:05:21;;;;;;;5.10;2.40;;;25.60;66.90;;;;;;5100560;28;20028;-52
2021/06/29 06:07:47;;;;;;;4.78;2.47;;;25.60;66.80;;;;;;5100599;28;20042;-52
2021/06/29 06:10:14;;;;;;;6.30;2.60;;;25.60;66.60;;;;;;5100523;28;20031;-52
2021/06/29 06:12:40;;;;;;;8.30;2.80;;;25.60;66.70;;;;;;5100434;28;20027;-52
2021/06/29 06:15:06;;;;;;;4.47;2.33;;;25.60;66.80;;;;;;5100208;28;20032;-53
2021/06/29 06:17:37;;;;;;;4.13;2.55;;;25.50;66.80;;;;;;5100263;28;20036;-53
2021/06/29 06:20:06;;;;;;;4.63;2.50;;;25.50;66.80;;;;;;5099764;28;20024;-52
2021/06/29 06:22:32;;;;;;;3.90;2.00;;;25.60;66.90;;;;;;5100101;28;20027;-52
2021/06/29 06:24:59;;;;;;;5.65;2.70;;;25.60;66.90;;;;;;5099244;28;20035;-52
2021/06/29 06:27:25;;;;;;;7.63;2.78;;;25.50;66.70;;;;;;5097908;28;20534;-52
2021/06/29 06:29:51;;;;;;;5.07;2.67;;;25.50;66.90;;;;;;5099435;28;20027;-52
2021/06/29 06:32:16;;;;;;;4.32;2.33;;;25.50;66.90;;;;;;5099421;28;20402;-51
2021/06/29 06:34:42;;;;;;;6.10;2.30;;;25.50;66.90;;;;;;5099466;28;20043;-53
2021/06/29 06:37:07;;;;;;;5.13;2.40;;;25.50;67.00;;;;;;5089330;28;20031;-51
2021/06/29 06:39:33;;;;;;;5.40;2.60;;;25.50;67.00;;;;;;5099270;28;20734;-51
2021/06/29 06:41:59;;;;;;;6.15;3.00;;;25.50;67.00;;;;;;5099686;28;20087;-51
2021/06/29 06:44:24;;;;;;;4.90;2.42;;;25.50;67.00;;;;;;5099654;28;20016;-52
2021/06/29 06:46:50;;;;;;;5.55;2.30;;;25.50;67.00;;;;;;5099698;28;20091;-52
2021/06/29 06:49:16;;;;;;;5.18;2.58;;;25.50;67.00;;;;;;5099819;28;20107;-52
2021/06/29 06:51:42;;;;;;;4.80;2.20;;;25.40;66.90;;;;;;5099850;28;20043;-53
2021/06/29 06:54:07;;;;;;;3.97;2.35;;;25.40;67.00;;;;;;5099723;28;20008;-52
2021/06/29 06:56:33;;;;;;;6.72;2.55;;;25.40;67.00;;;;;;5098084;28;20135;-52
2021/06/29 06:58:59;;;;;;;3.78;2.30;;;25.50;67.10;;;;;;5099645;28;20084;-52
2021/06/29 07:01:24;;;;;;;5.20;2.40;;;25.50;67.10;;;;;;5099628;28;20024;-52
2021/06/29 07:03:50;;;;;;;4.72;2.22;;;25.40;67.20;;;;;;5099575;28;20455;-52
2021/06/29 07:06:16;;;;;;;4.68;2.38;;;25.50;67.10;;;;;;5099420;28;20020;-52
2021/06/29 07:08:42;;;;;;;4.97;2.38;;;25.40;67.00;;;;;;5087561;28;20016;-51
2021/06/29 07:11:08;;;;;;;4.68;2.47;;;25.40;67.20;;;;;;5085869;28;20024;-52
2021/06/29 07:13:35;;;;;;;4.15;2.13;;;25.40;67.10;;;;;;5085845;28;20681;-52
2021/06/29 07:16:01;;;;;;;5.90;2.80;;;25.40;67.30;;;;;;5085700;28;20084;-53
2021/06/29 07:18:26;;;;;;;5.10;2.17;;;25.40;67.30;;;;;;5085767;28;20013;-52
2021/06/29 07:20:52;;;;;;;4.05;2.00;;;25.40;67.30;;;;;;5085728;28;20043;-52
2021/06/29 07:23:18;;;;;;;5.40;2.67;;;25.40;67.40;;;;;;5085736;28;20028;-52
2021/06/29 07:25:44;;;;;;;4.82;2.33;;;25.40;67.50;;;;;;5085432;28;20017;-53
2021/06/29 07:28:10;;;;;;;5.22;2.47;;;25.40;67.40;;;;;;5085569;28;20032;-51
2021/06/29 07:30:38;;;;;;;5.13;2.20;;;25.40;67.40;;;;;;5085567;28;20071;-51
2021/06/29 07:33:04;;;;;;;5.50;2.30;;;25.40;67.30;;;;;;5085479;28;20055;-52
2021/06/29 07:35:30;;;;;;;3.72;2.03;;;25.40;67.30;;;;;;5085236;28;20020;-52
2021/06/29 07:38:00;;;;;;;3.80;2.25;;;25.40;67.30;;;;;;5085293;28;20031;-52
2021/06/29 07:40:26;;;;;;;4.18;2.40;;;25.40;67.20;;;;;;5085181;28;20030;-53
2021/06/29 07:42:52;;;;;;;4.50;2.50;;;25.40;67.10;;;;;;5085172;28;20024;-51
2021/06/29 07:45:18;;;;;;;3.80;2.50;;;25.40;67.20;;;;;;5084960;28;20103;-52
2021/06/29 07:47:44;;;;;;;5.60;2.05;;;25.40;67.20;;;;;;5085071;28;20148;-52
2021/06/29 07:50:10;;;;;;;4.30;2.47;;;25.40;67.30;;;;;;5084598;28;20056;-52
2021/06/29 07:52:36;;;;;;;4.22;2.22;;;25.40;67.20;;;;;;5084891;28;20052;-51
2021/06/29 07:55:04;;;;;;;3.92;2.45;;;25.30;67.20;;;;;;5084758;28;20020;-52
2021/06/29 07:57:30;;;;;;;4.50;2.50;;;25.40;67.30;;;;;;5071851;28;20067;-52
2021/06/29 07:59:55;;;;;;;4.45;2.50;;;25.40;67.30;;;;;;5064642;28;20150;-52
2021/06/29 08:02:21;;;;;;;4.47;2.67;;;25.40;67.50;;;;;;5064521;28;20020;-52
2021/06/29 08:04:48;;;;;;;4.78;2.85;;;25.40;67.60;;;;;;5064522;28;20043;-51
2021/06/29 08:07:14;;;;;;;6.65;2.55;;;25.40;67.70;;;;;;5064531;28;20021;-53
2021/06/29 08:09:40;;;;;;;4.22;2.60;;;25.40;67.70;;;;;;5064317;28;20478;-52
2021/06/29 08:12:07;;;;;;;5.22;3.00;;;25.40;67.80;;;;;;5064525;28;20020;-51
2021/06/29 08:14:34;;;;;;;5.15;2.63;;;25.40;67.90;;;;;;5064263;28;20629;-52
2021/06/29 08:17:01;;;;;;;4.93;2.53;;;25.40;67.90;;;;;;5064288;28;20387;-52
2021/06/29 08:19:27;;;;;;;4.93;2.45;;;25.40;67.90;;;;;;5063426;28;20013;-51
2021/06/29 08:21:54;;;;;;;4.40;2.42;;;25.40;67.90;;;;;;5064325;28;20033;-52
2021/06/29 08:24:19;;;;;;;4.72;2.40;;;25.40;68.00;;;;;;5064236;28;20024;-52
2021/06/29 08:26:45;;;;;;;4.20;2.50;;;25.40;68.00;;;;;;5064156;28;20532;-51
2021/06/29 08:29:12;;;;;;;4.28;2.63;;;25.40;68.00;;;;;;5064181;28;20648;-51
2021/06/29 08:31:38;;;;;;;5.47;2.90;;;25.40;68.00;;;;;;5064190;28;20036;-52
2021/06/29 08:34:04;;;;;;;4.53;2.53;;;25.40;68.00;;;;;;5064005;28;20499;-52
2021/06/29 08:36:30;;;;;;;4.82;2.53;;;25.40;68.10;;;;;;5063896;28;20039;-52
2021/06/29 08:38:57;;;;;;;4.07;2.47;;;25.40;68.10;;;;;;5063813;28;20016;-52
2021/06/29 08:41:23;;;;;;;6.22;2.95;;;25.40;68.10;;;;;;5063779;28;20455;-51
2021/06/29 08:43:50;;;;;;;4.15;2.60;;;25.40;68.10;;;;;;5063937;28;20028;-52
2021/06/29 08:46:16;;;;;;;4.43;2.80;;;25.40;68.10;;;;;;5063708;28;20475;-52
2021/06/29 08:48:42;;;;;;;4.43;2.65;;;25.40;68.10;;;;;;5063836;28;20032;-51
2021/06/29 08:51:08;;;;;;;4.63;2.80;;;25.40;68.10;;;;;;5063730;28;20031;-51
2021/06/29 08:53:35;;;;;;;5.57;3.10;;;25.40;68.20;;;;;;5063832;28;20611;-52
2021/06/29 08:56:01;;;;;;;5.88;3.22;;;25.40;68.20;;;;;;5063424;28;20079;-52
2021/06/29 08:58:28;;;;;;;4.80;3.22;;;25.40;68.20;;;;;;5063558;28;20036;-51
2021/06/29 09:00:55;;;;;;;4.90;2.90;;;25.40;68.20;;;;;;5063470;28;20028;-52
2021/06/29 09:03:22;;;;;;;6.25;3.67;;;25.40;68.40;;;;;;5063371;28;20673;-51
2021/06/29 09:05:52;;;;;;;6.40;3.63;;;25.40;68.20;;;;;;5063362;28;20036;-51
2021/06/29 09:08:20;;;;;;;5.13;2.90;;;25.40;68.20;;;;;;5063473;28;20123;-51
2021/06/29 09:11:10;;;;;;;5.45;3.45;;;25.40;68.20;;;;;;5063290;28;20028;-51
2021/06/29 09:13:36;;;;;;;6.78;3.50;;;25.40;68.00;;;;;;5063287;28;20593;-52
2021/06/29 09:16:03;;;;;;;7.20;3.88;;;25.40;68.20;;;;;;5063043;28;20037;-51
2021/06/29 09:18:31;;;;;;;6.20;3.28;;;25.40;68.20;;;;;;5063267;28;20044;-53
2021/06/29 09:21:09;;;;;;;8.00;4.10;;;25.40;68.20;;;;;;5063349;28;20031;-52
2021/06/29 09:23:36;;;;;;;6.45;3.30;;;25.40;68.20;;;;;;5063277;28;20399;-51
2021/06/29 09:26:05;;;;;;;7.50;3.58;;;25.40;68.20;;;;;;5063087;28;20024;-52
2021/06/29 09:28:38;;;;;;;6.85;4.00;;;25.40;68.30;;;;;;5063242;28;20475;-52
2021/06/29 09:31:12;;;;;;;8.43;4.20;;;25.40;68.30;;;;;;5062843;28;20024;-51
2021/06/29 09:33:46;;;;;;;6.75;3.95;;;25.40;68.30;;;;;;5063102;28;20050;-51
2021/06/29 09:36:13;;;;;;;;;;;25.40;68.30;;;;;;5063407;28;20067;-52
2021/06/29 09:38:40;;;;;;;9.18;3.75;;;25.40;68.20;;;;;;5063100;28;19904;-53
2021/06/29 09:41:11;;;;;;;5.78;3.45;;;25.40;68.30;;;;;;5062981;28;20506;-51
2021/06/29 09:43:45;;;;;;;5.95;3.40;;;25.40;68.30;;;;;;5063048;28;20721;-51
2021/06/29 09:46:12;;;;;;;6.93;3.63;;;25.40;68.40;;;;;;5062703;28;20071;-51
2021/06/29 09:48:42;;;;;;;8.00;3.72;;;25.40;68.40;;;;;;5062932;28;20025;-52
2021/06/29 09:51:30;;;;;;;5.82;3.47;;;25.40;68.40;;;;;;5062917;28;20192;-52
2021/06/29 09:53:58;;;;;;;5.95;3.45;;;25.40;68.40;;;;;;5062941;28;20020;-51
2021/06/29 09:56:36;;;;;;;6.68;3.95;;;25.40;68.40;;;;;;5062488;28;20510;-51
2021/06/29 09:59:02;;;;;;;7.15;3.63;;;25.40;68.40;;;;;;5062891;28;20024;-51
2021/06/29 10:01:29;;;;;;;6.40;3.60;;;25.40;68.40;;;;;;5062759;28;20032;-51
2021/06/29 10:05:25;;;;;;;6.30;3.97;;;25.40;67.90;;;;;;5100799;27;20481;-52
2021/06/29 10:07:52;;;;;;;7.47;3.83;;;25.40;68.30;;;;;;5100794;28;20024;-52
2021/06/29 10:10:19;;;;;;;7.65;3.83;;;25.40;68.40;;;;;;5100592;28;20028;-52
2021/06/29 10:13:16;;;;;;;9.90;4.50;;;25.40;67.90;;;;;;5060380;28;20480;-51
2021/06/29 10:15:43;;;;;;;6.25;3.72;;;25.40;68.40;;;;;;5060041;28;20537;-54
2021/06/29 10:19:37;;;;;;;6.60;3.80;;;25.40;68.00;;;;;;5080482;27;20981;-52
2021/06/29 10:22:05;;;;;;;7.53;4.15;;;25.40;68.50;;;;;;5080399;28;20527;-51
2021/06/29 10:24:37;;;;;;;5.78;3.50;;;25.40;68.40;;;;;;5080263;28;20032;-52
2021/06/29 10:27:07;;;;;;;7.22;4.65;;;25.40;68.50;;;;;;5080360;28;20440;-52
2021/06/29 10:29:34;;;;;;;6.32;3.50;;;25.40;68.50;;;;;;5080361;28;20013;-52
2021/06/29 10:32:39;;;;;;;6.95;3.38;;;25.40;68.00;;;;;;5060436;28;20414;-52
2021/06/29 10:35:05;;;;;;;6.00;3.47;;;25.40;68.50;;;;;;5060341;28;20064;-51
2021/06/29 10:37:31;;;;;;;7.07;3.38;;;25.40;68.50;;;;;;5060260;28;20024;-51
2021/06/29 10:39:57;;;;;;;5.40;3.53;;;25.40;68.50;;;;;;5060262;28;20020;-52
2021/06/29 10:42:23;;;;;;;5.95;3.55;;;25.40;68.50;;;;;;5060237;28;20464;-52
2021/06/29 10:44:52;;;;;;;8.05;3.78;;;25.50;68.60;;;;;;5060072;28;20016;-51
2021/06/29 10:47:32;;;;;;;6.22;3.85;;;25.40;68.60;;;;;;5060045;28;20032;-52
2021/06/29 10:52:23;;;;;;;5.57;3.38;;;25.40;68.20;;;;;;5060407;28;20414;-51
2021/06/29 10:54:59;;;;;;;;;;;25.50;68.60;;;;;;5060638;28;20088;-52
2021/06/29 10:59:16;;;;;;;6.57;3.25;;;25.50;68.30;;;;;;5059986;28;20422;-51
2021/06/29 11:01:54;;;;;;;5.13;3.22;;;25.50;69.00;;;;;;5040260;28;20031;-52
2021/06/29 11:04:59;;;;;;;6.03;3.10;;;25.50;68.90;;;;;;5040277;28;20087;-53
2021/06/29 11:07:27;;;;;;;;;;;25.50;68.90;;;;;;5040773;28;20567;-51
2021/06/29 11:09:56;;;;;;;5.40;3.20;;;25.50;69.00;;;;;;5040173;28;20443;-52
2021/06/29 11:12:39;;;;;;;6.35;3.70;;;25.50;69.00;;;;;;5040160;28;20029;-52
2021/06/29 11:15:08;;;;;;;5.68;3.33;;;25.50;69.10;;;;;;5039935;28;20025;-53
2021/06/29 11:17:50;;;;;;;5.45;3.65;;;25.50;68.90;;;;;;5038571;28;20596;-52
2021/06/29 11:20:23;;;;;;;6.30;3.20;;;25.50;68.80;;;;;;5039818;28;20047;-51
2021/06/29 11:23:06;;;;;;;7.05;3.90;;;25.50;68.80;;;;;;5039958;28;20171;-51
2021/06/29 11:25:43;;;;;;;6.13;3.78;;;25.50;68.70;;;;;;5039893;28;20029;-52
2021/06/29 11:28:10;;;;;;;6.35;3.50;;;25.50;69.00;;;;;;5039632;28;20117;-52
2021/06/29 11:30:59;;;;;;;5.13;3.45;;;25.50;68.80;;;;;;5039829;28;20033;-52
2021/06/29 11:33:34;;;;;;;5.93;3.50;;;25.50;68.70;;;;;;5041478;28;20020;-51
2021/06/29 11:36:00;;;;;;;5.65;3.80;;;25.50;68.80;;;;;;5048654;28;20564;-52
2021/06/29 11:38:40;;;;;;;5.95;4.03;;;25.50;68.70;;;;;;5050102;28;20033;-52
2021/06/29 11:41:27;;;;;;;5.45;3.22;;;25.50;68.70;;;;;;5057146;28;20615;-52
2021/06/29 11:43:59;;;;;;;5.43;3.72;;;25.60;69.00;;;;;;5059500;28;20233;-51
2021/06/29 11:46:43;;;;;;;5.60;3.67;;;25.60;69.20;;;;;;5059268;28;20480;-53
2021/06/29 11:49:09;;;;;;;;;;;25.60;69.00;;;;;;5059856;28;20056;-52
2021/06/29 11:51:57;;;;;;;5.03;3.63;;;25.60;69.00;;;;;;5056539;28;19983;-51
2021/06/29 11:54:39;;;;;;;5.85;3.65;;;25.60;69.20;;;;;;5039327;28;20029;-51
2021/06/29 11:57:36;;;;;;;5.05;3.60;;;25.60;69.00;;;;;;5039191;28;20141;-51
2021/06/29 12:00:07;;;;;;;6.80;4.07;;;25.60;69.00;;;;;;5039289;28;20400;-52
2021/06/29 12:02:34;;;;;;;6.15;3.75;;;25.60;68.90;;;;;;5039298;28;20022;-52
2021/06/29 12:05:10;;;;;;;6.30;3.42;;;25.60;68.90;;;;;;5039101;28;20047;-52
2021/06/29 12:07:41;;;;;;;5.30;3.65;;;25.60;68.90;;;;;;5041683;28;20799;-51
2021/06/29 12:10:14;;;;;;;5.25;3.40;;;25.60;68.80;;;;;;5027347;28;20108;-52
2021/06/29 12:12:43;;;;;;;5.30;3.30;;;25.60;68.70;;;;;;5025840;28;20036;-52
2021/06/29 12:15:09;;;;;;;5.18;3.15;;;25.60;68.80;;;;;;5025635;28;20029;-52
2021/06/29 12:17:36;;;;;;;5.70;3.22;;;25.60;68.80;;;;;;5025522;28;20080;-53
2021/06/29 12:20:09;;;;;;;5.05;3.05;;;25.60;69.00;;;;;;5025656;28;20029;-51
2021/06/29 12:22:39;;;;;;;4.90;3.63;;;25.60;68.80;;;;;;5024392;28;20095;-51
2021/06/29 12:25:15;;;;;;;5.18;3.22;;;25.60;68.70;;;;;;5025398;28;20026;-53
2021/06/29 12:28:00;;;;;;;7.00;3.42;;;25.60;68.90;;;;;;5041556;28;20379;-52
2021/06/29 12:30:36;;;;;;;7.38;3.55;;;25.60;68.80;;;;;;5044859;28;20064;-52
2021/06/29 12:33:18;;;;;;;5.63;3.38;;;25.60;68.80;;;;;;5045333;28;20057;-51
2021/06/29 12:35:50;;;;;;;7.82;3.35;;;25.60;68.60;;;;;;5044578;28;20021;-52
2021/06/29 12:38:19;;;;;;;6.13;3.88;;;25.60;68.50;;;;;;5035761;28;20045;-51
2021/06/29 12:40:52;;;;;;;6.05;3.50;;;25.60;68.60;;;;;;5032247;28;20457;-52
2021/06/29 12:43:41;;;;;;;6.18;3.67;;;25.60;69.00;;;;;;5046168;28;20025;-51
2021/06/29 12:46:19;;;;;;;6.20;3.40;;;25.60;68.60;;;;;;5035265;28;20080;-51
2021/06/29 12:48:56;;;;;;;6.13;3.53;;;25.70;68.70;;;;;;5032995;28;20018;-51
2021/06/29 12:51:22;;;;;;;7.95;4.03;;;25.60;68.70;;;;;;5035406;28;20045;-51
2021/06/29 12:53:55;;;;;;;5.38;3.88;;;25.60;68.60;;;;;;5033841;28;20047;-52
2021/06/29 12:57:10;;;;;;;5.55;3.50;;;25.60;68.30;;;;;;5099438;27;20420;-52
2021/06/29 12:59:42;;;;;;;5.82;3.40;;;25.60;68.70;;;;;;5099394;28;20134;-52
2021/06/29 13:02:13;;;;;;;6.93;3.85;;;25.60;68.70;;;;;;5097067;28;20008;-52
2021/06/29 13:04:46;;;;;;;5.35;3.28;;;25.60;68.70;;;;;;5098841;28;20039;-51
2021/06/29 13:07:15;;;;;;;9.50;3.30;;;25.70;68.70;;;;;;5099305;28;20035;-52
2021/06/29 13:09:44;;;;;;;4.90;3.17;;;25.70;69.10;;;;;;5097808;28;20032;-52
2021/06/29 13:12:14;;;;;;;7.30;3.88;;;25.60;68.70;;;;;;5097782;28;20018;-52
2021/06/29 13:14:52;;;;;;;6.68;3.22;;;25.70;68.80;;;;;;5095907;28;20029;-51
2021/06/29 13:17:17;;;;;;;5.55;3.40;;;25.70;68.70;;;;;;5100125;28;20499;-52
2021/06/29 13:19:43;;;;;;;6.68;3.47;;;25.70;68.80;;;;;;5100208;28;20038;-51
2021/06/29 13:22:11;;;;;;;5.90;3.20;;;25.70;68.80;;;;;;5100124;28;20118;-51
2021/06/29 13:24:47;;;;;;;6.95;3.40;;;25.70;68.70;;;;;;5100025;28;20028;-51
2021/06/29 13:28:08;;;;;;;6.07;3.70;;;25.70;68.20;;;;;;5059939;28;20426;-51
2021/06/29 13:30:34;;;;;;;6.53;4.20;;;25.70;68.70;;;;;;5059861;28;20033;-51
2021/06/29 13:32:59;;;;;;;9.70;4.00;;;25.70;68.70;;;;;;5059740;28;20025;-52
2021/06/29 13:35:25;;;;;;;5.75;3.38;;;25.70;68.70;;;;;;5054398;28;20024;-51
2021/06/29 13:37:57;;;;;;;4.38;3.08;;;25.70;68.80;;;;;;5042690;28;20013;-51
2021/06/29 13:40:33;;;;;;;4.90;3.63;;;25.70;68.80;;;;;;5055437;28;20061;-53
2021/06/29 13:43:17;;;;;;;5.85;3.58;;;25.70;68.70;;;;;;5049398;28;20063;-52
2021/06/29 13:45:54;;;;;;;5.75;3.55;;;25.70;68.70;;;;;;5049468;28;20419;-52
2021/06/29 13:48:46;;;;;;;5.95;3.10;;;25.70;68.60;;;;;;5049825;28;20033;-52
2021/06/29 13:51:29;;;;;;;5.97;3.50;;;25.70;68.70;;;;;;5047867;28;20033;-52
2021/06/29 13:54:11;;;;;;;11.93;3.60;;;25.70;68.70;;;;;;5048792;28;20887;-52
2021/06/29 13:56:40;;;;;;;5.72;3.97;;;25.70;68.80;;;;;;5049294;28;20449;-51
2021/06/29 13:59:06;;;;;;;6.88;3.08;;;25.70;68.80;;;;;;5047023;28;20641;-52
2021/06/29 14:01:34;;;;;;;7.57;4.07;;;25.70;68.80;;;;;;5049122;28;20147;-52
2021/06/29 14:04:06;;;;;;;5.43;3.65;;;25.70;68.80;;;;;;5046755;28;20037;-52
2021/06/29 14:06:32;;;;;;;6.53;3.50;;;25.80;68.80;;;;;;5044612;28;20025;-52
2021/06/29 14:09:11;;;;;;;5.25;3.63;;;25.70;68.80;;;;;;5044865;28;20025;-52
2021/06/29 14:11:42;;;;;;;7.15;3.72;;;25.70;68.90;;;;;;5048127;28;20043;-52
2021/06/29 14:14:11;;;;;;;7.60;4.00;;;25.70;68.90;;;;;;5050480;28;20506;-52
2021/06/29 14:16:37;;;;;;;5.82;3.55;;;25.80;69.00;;;;;;5057823;28;20064;-52
2021/06/29 14:19:04;;;;;;;6.85;3.53;;;25.80;68.80;;;;;;5059374;28;20017;-52
2021/06/29 14:21:33;;;;;;;7.90;3.53;;;25.80;68.80;;;;;;5059292;28;20013;-52
2021/06/29 14:24:01;;;;;;;9.57;4.03;;;25.70;68.70;;;;;;5059231;28;20025;-52
2021/06/29 14:27:56;;;;;;;6.32;3.75;;;25.70;68.40;;;;;;5060466;28;20480;-52
2021/06/29 14:30:23;;;;;;;8.02;3.38;;;25.70;68.90;;;;;;5060341;28;20052;-52
2021/06/29 14:32:49;;;;;;;6.93;3.78;;;25.80;68.80;;;;;;5060244;28;20017;-52
2021/06/29 14:35:15;;;;;;;5.57;3.75;;;25.80;68.80;;;;;;5060192;28;20381;-52
2021/06/29 14:37:40;;;;;;;6.70;3.50;;;25.80;68.60;;;;;;5060236;28;20020;-53
2021/06/29 14:40:07;;;;;;;7.07;3.50;;;25.70;68.50;;;;;;5060101;28;20457;-52
2021/06/29 14:42:35;;;;;;;6.43;3.30;;;25.70;68.60;;;;;;5059985;28;20442;-53
2021/06/29 14:45:01;;;;;;;6.85;4.05;;;25.70;68.50;;;;;;5059807;28;20040;-52
2021/06/29 14:47:27;;;;;;;7.50;4.20;;;25.70;68.50;;;;;;5059883;28;20635;-52
2021/06/29 14:49:53;;;;;;;6.70;3.20;;;25.70;68.50;;;;;;5059835;28;20407;-52
2021/06/29 14:52:19;;;;;;;5.35;3.75;;;25.70;68.60;;;;;;5058286;28;20025;-51
2021/06/29 14:54:45;;;;;;;6.78;3.28;;;25.70;68.50;;;;;;5058426;28;20051;-52
2021/06/29 14:57:10;;;;;;;8.23;3.47;;;25.70;68.70;;;;;;5058603;28;20080;-52
2021/06/29 14:59:36;;;;;;;5.38;3.45;;;25.70;68.80;;;;;;5058225;28;20024;-52
2021/06/29 15:02:02;;;;;;;6.70;3.40;;;25.70;68.70;;;;;;5055542;28;20107;-52
2021/06/29 15:04:28;;;;;;;8.02;3.70;;;25.70;68.70;;;;;;5058177;28;20598;-51
2021/06/29 15:06:54;;;;;;;6.22;3.60;;;25.70;68.80;;;;;;5058258;28;20280;-52
2021/06/29 15:09:19;;;;;;;6.07;3.28;;;25.80;68.80;;;;;;5058090;28;20032;-53
2021/06/29 15:11:47;;;;;;;7.75;3.95;;;25.70;68.60;;;;;;5058148;28;20107;-52
2021/06/29 15:14:13;;;;;;;5.90;3.45;;;25.70;68.60;;;;;;5058572;28;20033;-51
2021/06/29 15:16:40;;;;;;;7.20;3.70;;;25.70;68.70;;;;;;5051158;28;20035;-51
2021/06/29 15:19:06;;;;;;;6.45;4.00;;;25.80;68.70;;;;;;5046088;28;20311;-51
2021/06/29 15:21:34;;;;;;;5.25;3.20;;;25.70;68.60;;;;;;5032883;28;20037;-51
2021/06/29 15:24:00;;;;;;;5.93;3.40;;;25.70;68.60;;;;;;5032613;28;20035;-52
2021/06/29 15:26:25;;;;;;;8.73;3.95;;;25.70;68.50;;;;;;5034287;28;20049;-52
2021/06/29 15:28:51;;;;;;;6.75;4.35;;;25.70;68.40;;;;;;5034507;28;20468;-52
2021/06/29 15:31:17;;;;;;;7.50;3.75;;;25.70;68.30;;;;;;5034160;28;20025;-53
2021/06/29 15:33:42;;;;;;;7.68;3.70;;;25.80;68.40;;;;;;5033074;28;20095;-52
2021/06/29 15:36:08;;;;;;;4.95;3.60;;;25.70;68.30;;;;;;5032922;28;20025;-52
2021/06/29 15:38:34;;;;;;;10.43;3.85;;;25.80;68.40;;;;;;5023741;28;20110;-52
2021/06/29 15:41:04;;;;;;;6.82;3.47;;;25.80;68.40;;;;;;5019636;28;20026;-52
2021/06/29 15:44:56;;;;;;;7.18;3.88;;;25.70;68.00;;;;;;5053973;28;20581;-52
2021/06/29 15:48:59;;;;;;;7.57;3.90;;;25.80;68.00;;;;;;5054058;28;20539;-53
2021/06/29 15:52:23;;;;;;;6.13;3.95;;;25.80;68.20;;;;;;5053875;28;20836;-51
2021/06/29 15:54:49;;;;;;;5.95;3.78;;;25.80;68.70;;;;;;5053752;28;20163;-51
2021/06/29 15:57:14;;;;;;;11.25;4.85;;;25.80;68.70;;;;;;5053355;28;20158;-52
2021/06/29 15:59:41;;;;;;;5.75;3.92;;;25.80;68.70;;;;;;5052721;28;20547;-52
2021/06/29 16:02:07;;;;;;;7.22;3.95;;;25.80;68.70;;;;;;5053454;28;20124;-52
2021/06/29 16:04:34;;;;;;;7.38;4.18;;;25.80;68.70;;;;;;5054599;28;20190;-52
2021/06/29 16:07:00;;;;;;;6.60;3.80;;;25.80;68.80;;;;;;5054919;28;20025;-51
2021/06/29 16:09:25;;;;;;;5.45;3.72;;;25.80;68.90;;;;;;5046646;28;20423;-52
2021/06/29 16:11:51;;;;;;;5.05;3.38;;;25.80;68.90;;;;;;5048544;28;20079;-51
2021/06/29 16:14:17;;;;;;;9.55;3.92;;;25.80;68.90;;;;;;5049539;28;20472;-53
2021/06/29 16:16:43;;;;;;;5.55;4.20;;;25.80;68.90;;;;;;5049531;28;20057;-52